sensor_id;sensor_type;location;lat;lon;timestamp;P1;durP1;ratioP1;P2;durP2;ratioP2
9128;SDS011;4599;50.906;6.786;2024-01-07T00:01:32;47.87;;;25.83;;
9128;SDS011;4599;50.906;6.786;2024-01-07T00:05:35;40.23;;;22.87;;
9128;SDS011;4599;50.906;6.786;2024-01-07T00:09:37;41.07;;;22.07;;
9128;SDS011;4599;50.906;6.786;2024-01-07T00:13:38;43.13;;;23.43;;
9128;SDS011;4599;50.906;6.786;2024-01-07T00:17:41;43.70;;;23.47;;
9128;SDS011;4599;50.906;6.786;2024-01-07T00:21:43;43.47;;;23.80;;
9128;SDS011;4599;50.906;6.786;2024-01-07T00:25:46;41.93;;;24.73;;
9128;SDS011;4599;50.906;6.786;2024-01-07T00:29:47;44.20;;;24.50;;
9128;SDS011;4599;50.906;6.786;2024-01-07T00:33:50;40.40;;;22.47;;
9128;SDS011;4599;50.906;6.786;2024-01-07T00:37:52;43.53;;;22.60;;
9128;SDS011;4599;50.906;6.786;2024-01-07T00:41:54;43.17;;;24.00;;
9128;SDS011;4599;50.906;6.786;2024-01-07T00:45:55;43.43;;;23.83;;
9128;SDS011;4599;50.906;6.786;2024-01-07T00:49:58;43.77;;;24.43;;
9128;SDS011;4599;50.906;6.786;2024-01-07T00:54:00;40.30;;;22.97;;
9128;SDS011;4599;50.906;6.786;2024-01-07T00:58:01;40.83;;;22.60;;
9128;SDS011;4599;50.906;6.786;2024-01-07T01:02:03;43.47;;;23.77;;
9128;SDS011;4599;50.906;6.786;2024-01-07T01:06:06;40.47;;;22.53;;
9128;SDS011;4599;50.906;6.786;2024-01-07T01:10:08;37.23;;;21.37;;
9128;SDS011;4599;50.906;6.786;2024-01-07T01:14:10;39.50;;;21.40;;
9128;SDS011;4599;50.906;6.786;2024-01-07T01:18:12;36.67;;;20.67;;
9128;SDS011;4599;50.906;6.786;2024-01-07T01:22:15;32.40;;;20.03;;
9128;SDS011;4599;50.906;6.786;2024-01-07T01:26:17;37.77;;;20.13;;
9128;SDS011;4599;50.906;6.786;2024-01-07T01:30:18;34.23;;;20.33;;
9128;SDS011;4599;50.906;6.786;2024-01-07T01:34:20;36.27;;;19.50;;
9128;SDS011;4599;50.906;6.786;2024-01-07T01:38:23;30.40;;;17.93;;
9128;SDS011;4599;50.906;6.786;2024-01-07T01:42:24;30.80;;;18.30;;
9128;SDS011;4599;50.906;6.786;2024-01-07T01:46:26;35.37;;;19.63;;
9128;SDS011;4599;50.906;6.786;2024-01-07T01:50:30;33.03;;;19.27;;
9128;SDS011;4599;50.906;6.786;2024-01-07T01:54:33;35.77;;;18.63;;
9128;SDS011;4599;50.906;6.786;2024-01-07T01:58:36;32.03;;;18.83;;
9128;SDS011;4599;50.906;6.786;2024-01-07T02:02:37;31.17;;;17.40;;
9128;SDS011;4599;50.906;6.786;2024-01-07T02:06:39;27.90;;;16.07;;
9128;SDS011;4599;50.906;6.786;2024-01-07T02:10:42;26.33;;;15.33;;
9128;SDS011;4599;50.906;6.786;2024-01-07T02:14:44;25.43;;;15.37;;
9128;SDS011;4599;50.906;6.786;2024-01-07T02:18:45;22.90;;;14.43;;
9128;SDS011;4599;50.906;6.786;2024-01-07T02:22:47;23.00;;;13.90;;
9128;SDS011;4599;50.906;6.786;2024-01-07T02:26:50;23.40;;;14.23;;
9128;SDS011;4599;50.906;6.786;2024-01-07T02:30:52;22.13;;;14.03;;
9128;SDS011;4599;50.906;6.786;2024-01-07T02:34:53;19.20;;;12.90;;
9128;SDS011;4599;50.906;6.786;2024-01-07T02:38:55;19.57;;;12.50;;
9128;SDS011;4599;50.906;6.786;2024-01-07T02:42:58;18.87;;;12.10;;
9128;SDS011;4599;50.906;6.786;2024-01-07T02:47:00;18.53;;;12.73;;
9128;SDS011;4599;50.906;6.786;2024-01-07T02:51:01;18.47;;;12.93;;
9128;SDS011;4599;50.906;6.786;2024-01-07T02:55:03;17.93;;;12.60;;
9128;SDS011;4599;50.906;6.786;2024-01-07T02:59:06;17.07;;;11.53;;
9128;SDS011;4599;50.906;6.786;2024-01-07T03:03:08;19.13;;;12.73;;
9128;SDS011;4599;50.906;6.786;2024-01-07T03:07:10;19.10;;;13.23;;
9128;SDS011;4599;50.906;6.786;2024-01-07T03:11:11;19.97;;;13.27;;
9128;SDS011;4599;50.906;6.786;2024-01-07T03:15:14;20.00;;;13.77;;
9128;SDS011;4599;50.906;6.786;2024-01-07T03:19:16;20.47;;;13.60;;
9128;SDS011;4599;50.906;6.786;2024-01-07T03:23:17;17.43;;;12.03;;
9128;SDS011;4599;50.906;6.786;2024-01-07T03:27:19;18.27;;;12.50;;
9128;SDS011;4599;50.906;6.786;2024-01-07T03:31:22;20.33;;;13.40;;
9128;SDS011;4599;50.906;6.786;2024-01-07T03:35:23;18.83;;;13.47;;
9128;SDS011;4599;50.906;6.786;2024-01-07T03:39:25;21.10;;;13.93;;
9128;SDS011;4599;50.906;6.786;2024-01-07T03:43:27;17.63;;;12.27;;
9128;SDS011;4599;50.906;6.786;2024-01-07T03:47:31;17.90;;;12.57;;
9128;SDS011;4599;50.906;6.786;2024-01-07T03:51:32;18.63;;;12.50;;
9128;SDS011;4599;50.906;6.786;2024-01-07T03:55:34;18.73;;;13.30;;
9128;SDS011;4599;50.906;6.786;2024-01-07T03:59:35;20.93;;;13.20;;
9128;SDS011;4599;50.906;6.786;2024-01-07T04:03:38;17.37;;;12.63;;
9128;SDS011;4599;50.906;6.786;2024-01-07T04:07:40;20.57;;;12.53;;
9128;SDS011;4599;50.906;6.786;2024-01-07T04:11:42;20.27;;;12.83;;
9128;SDS011;4599;50.906;6.786;2024-01-07T04:15:44;19.13;;;13.23;;
9128;SDS011;4599;50.906;6.786;2024-01-07T04:19:47;22.07;;;13.30;;
9128;SDS011;4599;50.906;6.786;2024-01-07T04:23:48;20.90;;;13.47;;
9128;SDS011;4599;50.906;6.786;2024-01-07T04:27:50;21.63;;;13.93;;
9128;SDS011;4599;50.906;6.786;2024-01-07T04:31:51;21.23;;;12.90;;
9128;SDS011;4599;50.906;6.786;2024-01-07T04:35:54;20.27;;;12.83;;
9128;SDS011;4599;50.906;6.786;2024-01-07T04:39:56;23.07;;;13.23;;
9128;SDS011;4599;50.906;6.786;2024-01-07T04:43:57;20.90;;;12.70;;
9128;SDS011;4599;50.906;6.786;2024-01-07T04:47:59;22.03;;;14.50;;
9128;SDS011;4599;50.906;6.786;2024-01-07T04:52:02;24.50;;;15.33;;
9128;SDS011;4599;50.906;6.786;2024-01-07T04:56:04;27.33;;;17.30;;
9128;SDS011;4599;50.906;6.786;2024-01-07T05:00:06;25.57;;;16.43;;
9128;SDS011;4599;50.906;6.786;2024-01-07T05:04:08;26.63;;;16.03;;
9128;SDS011;4599;50.906;6.786;2024-01-07T05:08:12;24.70;;;16.83;;
9128;SDS011;4599;50.906;6.786;2024-01-07T05:12:14;26.50;;;17.40;;
9128;SDS011;4599;50.906;6.786;2024-01-07T05:16:18;25.07;;;16.83;;
9128;SDS011;4599;50.906;6.786;2024-01-07T05:20:20;26.03;;;16.93;;
9128;SDS011;4599;50.906;6.786;2024-01-07T05:24:24;27.17;;;17.93;;
9128;SDS011;4599;50.906;6.786;2024-01-07T05:28:25;25.03;;;16.13;;
9128;SDS011;4599;50.906;6.786;2024-01-07T05:32:27;22.83;;;15.50;;
9128;SDS011;4599;50.906;6.786;2024-01-07T05:36:29;25.00;;;16.07;;
9128;SDS011;4599;50.906;6.786;2024-01-07T05:40:32;23.57;;;15.93;;
9128;SDS011;4599;50.906;6.786;2024-01-07T05:44:33;25.17;;;16.67;;
9128;SDS011;4599;50.906;6.786;2024-01-07T05:48:40;22.87;;;15.87;;
9128;SDS011;4599;50.906;6.786;2024-01-07T05:52:42;22.30;;;15.30;;
9128;SDS011;4599;50.906;6.786;2024-01-07T05:56:45;23.70;;;16.63;;
9128;SDS011;4599;50.906;6.786;2024-01-07T06:00:47;24.10;;;16.07;;
9128;SDS011;4599;50.906;6.786;2024-01-07T06:04:48;23.73;;;16.17;;
9128;SDS011;4599;50.906;6.786;2024-01-07T06:08:50;24.40;;;16.60;;
9128;SDS011;4599;50.906;6.786;2024-01-07T06:12:53;21.93;;;15.67;;
9128;SDS011;4599;50.906;6.786;2024-01-07T06:16:54;22.80;;;16.43;;
9128;SDS011;4599;50.906;6.786;2024-01-07T06:20:56;25.20;;;16.00;;
9128;SDS011;4599;50.906;6.786;2024-01-07T06:24:57;22.30;;;14.87;;
9128;SDS011;4599;50.906;6.786;2024-01-07T06:29:00;21.47;;;14.87;;
9128;SDS011;4599;50.906;6.786;2024-01-07T06:33:02;22.60;;;14.80;;
9128;SDS011;4599;50.906;6.786;2024-01-07T06:37:04;22.93;;;15.80;;
9128;SDS011;4599;50.906;6.786;2024-01-07T06:41:06;20.30;;;13.90;;
9128;SDS011;4599;50.906;6.786;2024-01-07T06:45:10;21.53;;;14.47;;
9128;SDS011;4599;50.906;6.786;2024-01-07T06:49:12;19.57;;;13.67;;
9128;SDS011;4599;50.906;6.786;2024-01-07T06:53:14;21.50;;;14.23;;
9128;SDS011;4599;50.906;6.786;2024-01-07T06:57:15;21.63;;;14.33;;
9128;SDS011;4599;50.906;6.786;2024-01-07T07:01:21;19.43;;;13.60;;
9128;SDS011;4599;50.906;6.786;2024-01-07T07:05:24;21.63;;;13.80;;
9128;SDS011;4599;50.906;6.786;2024-01-07T07:09:25;22.03;;;14.33;;
9128;SDS011;4599;50.906;6.786;2024-01-07T07:13:27;22.27;;;15.13;;
9128;SDS011;4599;50.906;6.786;2024-01-07T07:17:30;21.70;;;14.57;;
9128;SDS011;4599;50.906;6.786;2024-01-07T07:21:33;20.83;;;14.27;;
9128;SDS011;4599;50.906;6.786;2024-01-07T07:25:35;19.50;;;13.87;;
9128;SDS011;4599;50.906;6.786;2024-01-07T07:29:36;24.20;;;14.97;;
9128;SDS011;4599;50.906;6.786;2024-01-07T07:33:39;21.93;;;13.40;;
9128;SDS011;4599;50.906;6.786;2024-01-07T07:37:41;21.63;;;13.60;;
9128;SDS011;4599;50.906;6.786;2024-01-07T07:41:43;23.03;;;15.13;;
9128;SDS011;4599;50.906;6.786;2024-01-07T07:45:45;21.43;;;14.67;;
9128;SDS011;4599;50.906;6.786;2024-01-07T07:49:48;21.77;;;13.97;;
9128;SDS011;4599;50.906;6.786;2024-01-07T07:53:49;19.40;;;13.83;;
9128;SDS011;4599;50.906;6.786;2024-01-07T07:57:51;20.20;;;13.83;;
9128;SDS011;4599;50.906;6.786;2024-01-07T08:01:52;18.63;;;13.53;;
9128;SDS011;4599;50.906;6.786;2024-01-07T08:05:56;18.77;;;12.83;;
9128;SDS011;4599;50.906;6.786;2024-01-07T08:09:58;18.40;;;12.10;;
9128;SDS011;4599;50.906;6.786;2024-01-07T08:14:00;18.47;;;12.13;;
9128;SDS011;4599;50.906;6.786;2024-01-07T08:18:01;20.23;;;12.43;;
9128;SDS011;4599;50.906;6.786;2024-01-07T08:22:04;20.37;;;13.67;;
9128;SDS011;4599;50.906;6.786;2024-01-07T08:26:06;18.57;;;12.73;;
9128;SDS011;4599;50.906;6.786;2024-01-07T08:30:08;19.20;;;12.87;;
9128;SDS011;4599;50.906;6.786;2024-01-07T08:34:10;19.70;;;13.03;;
9128;SDS011;4599;50.906;6.786;2024-01-07T08:38:13;19.77;;;13.13;;
9128;SDS011;4599;50.906;6.786;2024-01-07T08:42:14;20.77;;;13.90;;
9128;SDS011;4599;50.906;6.786;2024-01-07T08:46:16;19.73;;;13.17;;
9128;SDS011;4599;50.906;6.786;2024-01-07T08:50:18;18.63;;;12.97;;
9128;SDS011;4599;50.906;6.786;2024-01-07T08:54:21;18.60;;;14.10;;
9128;SDS011;4599;50.906;6.786;2024-01-07T08:58:22;21.07;;;13.67;;
9128;SDS011;4599;50.906;6.786;2024-01-07T09:02:24;20.67;;;14.13;;
9128;SDS011;4599;50.906;6.786;2024-01-07T09:06:25;20.23;;;13.83;;
9128;SDS011;4599;50.906;6.786;2024-01-07T09:10:28;22.53;;;14.33;;
9128;SDS011;4599;50.906;6.786;2024-01-07T09:14:30;20.27;;;14.03;;
9128;SDS011;4599;50.906;6.786;2024-01-07T09:18:31;20.37;;;14.10;;
9128;SDS011;4599;50.906;6.786;2024-01-07T09:22:33;21.00;;;13.43;;
9128;SDS011;4599;50.906;6.786;2024-01-07T09:26:36;20.03;;;13.80;;
9128;SDS011;4599;50.906;6.786;2024-01-07T09:30:38;21.57;;;14.80;;
9128;SDS011;4599;50.906;6.786;2024-01-07T09:34:40;21.70;;;14.20;;
9128;SDS011;4599;50.906;6.786;2024-01-07T09:38:41;21.23;;;14.13;;
9128;SDS011;4599;50.906;6.786;2024-01-07T09:42:44;23.83;;;14.30;;
9128;SDS011;4599;50.906;6.786;2024-01-07T09:46:47;21.27;;;13.80;;
9128;SDS011;4599;50.906;6.786;2024-01-07T09:50:50;21.60;;;13.23;;
9128;SDS011;4599;50.906;6.786;2024-01-07T09:54:55;19.13;;;12.50;;
9128;SDS011;4599;50.906;6.786;2024-01-07T09:59:01;18.27;;;11.73;;
9128;SDS011;4599;50.906;6.786;2024-01-07T10:03:03;16.77;;;11.87;;
9128;SDS011;4599;50.906;6.786;2024-01-07T10:07:06;20.10;;;12.37;;
9128;SDS011;4599;50.906;6.786;2024-01-07T10:11:07;16.00;;;11.70;;
9128;SDS011;4599;50.906;6.786;2024-01-07T10:15:11;17.53;;;12.17;;
9128;SDS011;4599;50.906;6.786;2024-01-07T10:19:15;14.77;;;11.07;;
9128;SDS011;4599;50.906;6.786;2024-01-07T10:23:20;14.33;;;10.53;;
9128;SDS011;4599;50.906;6.786;2024-01-07T10:27:22;14.30;;;10.60;;
9128;SDS011;4599;50.906;6.786;2024-01-07T10:31:25;15.97;;;11.40;;
9128;SDS011;4599;50.906;6.786;2024-01-07T10:35:27;13.30;;;9.60;;
9128;SDS011;4599;50.906;6.786;2024-01-07T10:39:33;11.73;;;8.87;;
9128;SDS011;4599;50.906;6.786;2024-01-07T10:43:35;10.83;;;7.83;;
9128;SDS011;4599;50.906;6.786;2024-01-07T10:47:41;10.63;;;8.37;;
9128;SDS011;4599;50.906;6.786;2024-01-07T10:51:51;10.40;;;8.20;;
9128;SDS011;4599;50.906;6.786;2024-01-07T10:56:03;13.30;;;8.93;;
9128;SDS011;4599;50.906;6.786;2024-01-07T11:00:06;13.10;;;9.27;;
9128;SDS011;4599;50.906;6.786;2024-01-07T11:04:13;15.10;;;8.83;;
9128;SDS011;4599;50.906;6.786;2024-01-07T11:08:19;12.30;;;9.60;;
9128;SDS011;4599;50.906;6.786;2024-01-07T11:12:26;12.60;;;9.60;;
9128;SDS011;4599;50.906;6.786;2024-01-07T11:16:41;15.07;;;9.67;;
9128;SDS011;4599;50.906;6.786;2024-01-07T11:20:44;14.97;;;10.53;;
9128;SDS011;4599;50.906;6.786;2024-01-07T11:24:47;15.27;;;10.63;;
9128;SDS011;4599;50.906;6.786;2024-01-07T11:28:50;14.77;;;10.17;;
9128;SDS011;4599;50.906;6.786;2024-01-07T11:32:58;16.57;;;10.87;;
9128;SDS011;4599;50.906;6.786;2024-01-07T11:37:02;13.10;;;9.67;;
9128;SDS011;4599;50.906;6.786;2024-01-07T11:41:09;16.10;;;10.10;;
9128;SDS011;4599;50.906;6.786;2024-01-07T11:45:12;14.90;;;10.53;;
9128;SDS011;4599;50.906;6.786;2024-01-07T11:49:14;13.23;;;9.30;;
9128;SDS011;4599;50.906;6.786;2024-01-07T11:53:17;13.67;;;10.20;;
9128;SDS011;4599;50.906;6.786;2024-01-07T11:57:19;15.20;;;10.17;;
9128;SDS011;4599;50.906;6.786;2024-01-07T12:01:21;15.30;;;10.40;;
9128;SDS011;4599;50.906;6.786;2024-01-07T12:05:22;14.03;;;9.97;;
9128;SDS011;4599;50.906;6.786;2024-01-07T12:09:25;13.10;;;9.57;;
9128;SDS011;4599;50.906;6.786;2024-01-07T12:13:27;13.10;;;9.63;;
9128;SDS011;4599;50.906;6.786;2024-01-07T12:17:29;13.27;;;8.87;;
9128;SDS011;4599;50.906;6.786;2024-01-07T12:21:31;11.70;;;8.60;;
9128;SDS011;4599;50.906;6.786;2024-01-07T12:25:34;11.40;;;8.77;;
9128;SDS011;4599;50.906;6.786;2024-01-07T12:29:36;13.03;;;8.47;;
9128;SDS011;4599;50.906;6.786;2024-01-07T12:33:37;10.23;;;8.10;;
9128;SDS011;4599;50.906;6.786;2024-01-07T12:37:40;11.83;;;8.23;;
9128;SDS011;4599;50.906;6.786;2024-01-07T12:41:45;11.03;;;7.43;;
9128;SDS011;4599;50.906;6.786;2024-01-07T12:45:47;14.60;;;8.23;;
9128;SDS011;4599;50.906;6.786;2024-01-07T12:49:49;13.17;;;8.07;;
9128;SDS011;4599;50.906;6.786;2024-01-07T12:53:50;12.17;;;8.47;;
9128;SDS011;4599;50.906;6.786;2024-01-07T12:57:53;12.40;;;7.80;;
9128;SDS011;4599;50.906;6.786;2024-01-07T13:01:55;12.63;;;7.40;;
9128;SDS011;4599;50.906;6.786;2024-01-07T13:05:57;10.57;;;7.70;;
9128;SDS011;4599;50.906;6.786;2024-01-07T13:09:59;13.03;;;8.27;;
9128;SDS011;4599;50.906;6.786;2024-01-07T13:14:02;10.27;;;7.13;;
9128;SDS011;4599;50.906;6.786;2024-01-07T13:18:04;10.23;;;6.50;;
9128;SDS011;4599;50.906;6.786;2024-01-07T13:22:06;8.50;;;6.50;;
9128;SDS011;4599;50.906;6.786;2024-01-07T13:26:07;9.47;;;6.03;;
9128;SDS011;4599;50.906;6.786;2024-01-07T13:30:11;8.77;;;5.57;;
9128;SDS011;4599;50.906;6.786;2024-01-07T13:34:12;5.77;;;4.70;;
9128;SDS011;4599;50.906;6.786;2024-01-07T13:38:14;6.13;;;4.50;;
9128;SDS011;4599;50.906;6.786;2024-01-07T13:42:16;8.10;;;5.60;;
9128;SDS011;4599;50.906;6.786;2024-01-07T13:46:19;8.03;;;5.00;;
9128;SDS011;4599;50.906;6.786;2024-01-07T13:50:20;7.53;;;5.33;;
9128;SDS011;4599;50.906;6.786;2024-01-07T13:54:22;11.03;;;5.13;;
9128;SDS011;4599;50.906;6.786;2024-01-07T13:58:23;8.83;;;4.67;;
9128;SDS011;4599;50.906;6.786;2024-01-07T14:02:27;5.73;;;4.40;;
9128;SDS011;4599;50.906;6.786;2024-01-07T14:06:28;5.93;;;4.50;;
9128;SDS011;4599;50.906;6.786;2024-01-07T14:10:30;6.00;;;4.73;;
9128;SDS011;4599;50.906;6.786;2024-01-07T14:14:31;4.73;;;4.20;;
9128;SDS011;4599;50.906;6.786;2024-01-07T14:18:35;7.03;;;4.57;;
9128;SDS011;4599;50.906;6.786;2024-01-07T14:22:36;5.20;;;4.60;;
9128;SDS011;4599;50.906;6.786;2024-01-07T14:26:38;6.97;;;4.50;;
9128;SDS011;4599;50.906;6.786;2024-01-07T14:30:39;5.13;;;4.23;;
9128;SDS011;4599;50.906;6.786;2024-01-07T14:34:42;6.83;;;4.77;;
9128;SDS011;4599;50.906;6.786;2024-01-07T14:38:44;6.27;;;4.50;;
9128;SDS011;4599;50.906;6.786;2024-01-07T14:42:46;5.23;;;4.00;;
9128;SDS011;4599;50.906;6.786;2024-01-07T14:46:48;6.00;;;4.70;;
9128;SDS011;4599;50.906;6.786;2024-01-07T14:50:51;4.60;;;3.83;;
9128;SDS011;4599;50.906;6.786;2024-01-07T14:54:52;5.00;;;3.80;;
9128;SDS011;4599;50.906;6.786;2024-01-07T14:58:54;5.73;;;3.77;;
9128;SDS011;4599;50.906;6.786;2024-01-07T15:02:57;5.33;;;3.70;;
9128;SDS011;4599;50.906;6.786;2024-01-07T15:07:00;5.57;;;3.20;;
9128;SDS011;4599;50.906;6.786;2024-01-07T15:11:01;5.33;;;3.50;;
9128;SDS011;4599;50.906;6.786;2024-01-07T15:15:03;5.03;;;2.87;;
9128;SDS011;4599;50.906;6.786;2024-01-07T15:19:05;10.00;;;3.90;;
9128;SDS011;4599;50.906;6.786;2024-01-07T15:23:08;7.47;;;3.83;;
9128;SDS011;4599;50.906;6.786;2024-01-07T15:27:10;6.03;;;3.70;;
9128;SDS011;4599;50.906;6.786;2024-01-07T15:31:11;4.23;;;2.90;;
9128;SDS011;4599;50.906;6.786;2024-01-07T15:35:13;8.40;;;3.17;;
9128;SDS011;4599;50.906;6.786;2024-01-07T15:39:16;3.93;;;2.73;;
9128;SDS011;4599;50.906;6.786;2024-01-07T15:43:18;3.47;;;2.83;;
9128;SDS011;4599;50.906;6.786;2024-01-07T15:47:19;3.63;;;2.67;;
9128;SDS011;4599;50.906;6.786;2024-01-07T15:51:21;3.37;;;2.60;;
9128;SDS011;4599;50.906;6.786;2024-01-07T15:55:24;3.60;;;2.20;;
9128;SDS011;4599;50.906;6.786;2024-01-07T15:59:27;3.97;;;2.30;;
9128;SDS011;4599;50.906;6.786;2024-01-07T16:03:28;4.23;;;2.23;;
9128;SDS011;4599;50.906;6.786;2024-01-07T16:07:30;3.73;;;2.40;;
9128;SDS011;4599;50.906;6.786;2024-01-07T16:11:33;3.50;;;2.20;;
9128;SDS011;4599;50.906;6.786;2024-01-07T16:15:34;2.23;;;2.00;;
9128;SDS011;4599;50.906;6.786;2024-01-07T16:19:36;3.27;;;2.17;;
9128;SDS011;4599;50.906;6.786;2024-01-07T16:23:38;3.03;;;2.20;;
9128;SDS011;4599;50.906;6.786;2024-01-07T16:27:40;3.37;;;2.33;;
9128;SDS011;4599;50.906;6.786;2024-01-07T16:31:42;5.60;;;2.37;;
9128;SDS011;4599;50.906;6.786;2024-01-07T16:35:44;3.17;;;2.10;;
9128;SDS011;4599;50.906;6.786;2024-01-07T16:39:45;3.00;;;2.30;;
9128;SDS011;4599;50.906;6.786;2024-01-07T16:43:50;3.70;;;2.20;;
9128;SDS011;4599;50.906;6.786;2024-01-07T16:47:51;2.77;;;2.30;;
9128;SDS011;4599;50.906;6.786;2024-01-07T16:51:53;2.83;;;2.23;;
9128;SDS011;4599;50.906;6.786;2024-01-07T16:55:55;4.50;;;2.23;;
9128;SDS011;4599;50.906;6.786;2024-01-07T16:59:58;5.43;;;2.50;;
9128;SDS011;4599;50.906;6.786;2024-01-07T17:03:59;3.27;;;2.27;;
9128;SDS011;4599;50.906;6.786;2024-01-07T17:08:01;4.37;;;2.50;;
9128;SDS011;4599;50.906;6.786;2024-01-07T17:12:03;2.87;;;2.03;;
9128;SDS011;4599;50.906;6.786;2024-01-07T17:16:06;3.10;;;2.00;;
9128;SDS011;4599;50.906;6.786;2024-01-07T17:20:08;4.00;;;2.27;;
9128;SDS011;4599;50.906;6.786;2024-01-07T17:24:10;2.97;;;2.30;;
9128;SDS011;4599;50.906;6.786;2024-01-07T17:28:12;2.17;;;1.90;;
9128;SDS011;4599;50.906;6.786;2024-01-07T17:32:15;2.13;;;1.90;;
9128;SDS011;4599;50.906;6.786;2024-01-07T17:36:16;2.13;;;1.67;;
9128;SDS011;4599;50.906;6.786;2024-01-07T17:40:18;2.10;;;1.73;;
9128;SDS011;4599;50.906;6.786;2024-01-07T17:44:19;4.07;;;2.37;;
9128;SDS011;4599;50.906;6.786;2024-01-07T17:48:22;3.03;;;2.30;;
9128;SDS011;4599;50.906;6.786;2024-01-07T17:52:24;3.07;;;2.30;;
9128;SDS011;4599;50.906;6.786;2024-01-07T17:56:26;3.53;;;2.33;;
9128;SDS011;4599;50.906;6.786;2024-01-07T18:00:27;5.17;;;2.00;;
9128;SDS011;4599;50.906;6.786;2024-01-07T18:04:32;3.13;;;2.50;;
9128;SDS011;4599;50.906;6.786;2024-01-07T18:08:34;2.30;;;2.10;;
9128;SDS011;4599;50.906;6.786;2024-01-07T18:12:47;3.60;;;2.57;;
9128;SDS011;4599;50.906;6.786;2024-01-07T18:16:51;2.53;;;2.23;;
9128;SDS011;4599;50.906;6.786;2024-01-07T18:20:54;4.13;;;2.40;;
9128;SDS011;4599;50.906;6.786;2024-01-07T18:24:55;2.40;;;2.20;;
9128;SDS011;4599;50.906;6.786;2024-01-07T18:28:57;4.17;;;2.30;;
9128;SDS011;4599;50.906;6.786;2024-01-07T18:33:00;2.77;;;2.20;;
9128;SDS011;4599;50.906;6.786;2024-01-07T18:37:03;3.30;;;1.90;;
9128;SDS011;4599;50.906;6.786;2024-01-07T18:41:04;2.17;;;1.87;;
9128;SDS011;4599;50.906;6.786;2024-01-07T18:45:06;2.33;;;1.77;;
9128;SDS011;4599;50.906;6.786;2024-01-07T18:49:08;2.57;;;2.20;;
9128;SDS011;4599;50.906;6.786;2024-01-07T18:53:11;3.03;;;1.87;;
9128;SDS011;4599;50.906;6.786;2024-01-07T18:57:13;2.03;;;1.43;;
9128;SDS011;4599;50.906;6.786;2024-01-07T19:01:14;2.63;;;1.60;;
9128;SDS011;4599;50.906;6.786;2024-01-07T19:05:16;1.70;;;1.60;;
9128;SDS011;4599;50.906;6.786;2024-01-07T19:09:19;1.70;;;1.60;;
9128;SDS011;4599;50.906;6.786;2024-01-07T19:13:22;2.50;;;1.80;;
9128;SDS011;4599;50.906;6.786;2024-01-07T19:17:23;2.03;;;1.83;;
9128;SDS011;4599;50.906;6.786;2024-01-07T19:21:25;2.27;;;1.90;;
9128;SDS011;4599;50.906;6.786;2024-01-07T19:25:28;1.73;;;1.57;;
9128;SDS011;4599;50.906;6.786;2024-01-07T19:29:30;3.30;;;1.93;;
9128;SDS011;4599;50.906;6.786;2024-01-07T19:33:31;3.00;;;1.63;;
9128;SDS011;4599;50.906;6.786;2024-01-07T19:37:33;3.10;;;1.60;;
9128;SDS011;4599;50.906;6.786;2024-01-07T19:41:36;1.70;;;1.57;;
9128;SDS011;4599;50.906;6.786;2024-01-07T19:45:37;2.67;;;2.00;;
9128;SDS011;4599;50.906;6.786;2024-01-07T19:49:40;2.13;;;1.80;;
9128;SDS011;4599;50.906;6.786;2024-01-07T19:53:42;3.93;;;2.30;;
9128;SDS011;4599;50.906;6.786;2024-01-07T19:57:45;3.10;;;2.13;;
9128;SDS011;4599;50.906;6.786;2024-01-07T20:01:47;2.10;;;1.90;;
9128;SDS011;4599;50.906;6.786;2024-01-07T20:05:49;2.63;;;2.10;;
9128;SDS011;4599;50.906;6.786;2024-01-07T20:09:51;4.30;;;2.50;;
9128;SDS011;4599;50.906;6.786;2024-01-07T20:13:54;4.27;;;2.07;;
9128;SDS011;4599;50.906;6.786;2024-01-07T20:17:55;4.07;;;2.30;;
9128;SDS011;4599;50.906;6.786;2024-01-07T20:21:58;2.23;;;2.03;;
9128;SDS011;4599;50.906;6.786;2024-01-07T20:26:00;2.23;;;2.00;;
9128;SDS011;4599;50.906;6.786;2024-01-07T20:30:06;3.20;;;2.07;;
9128;SDS011;4599;50.906;6.786;2024-01-07T20:34:08;3.57;;;2.00;;
9128;SDS011;4599;50.906;6.786;2024-01-07T20:38:09;2.77;;;1.77;;
9128;SDS011;4599;50.906;6.786;2024-01-07T20:42:11;2.90;;;2.20;;
9128;SDS011;4599;50.906;6.786;2024-01-07T20:46:33;2.47;;;2.20;;
9128;SDS011;4599;50.906;6.786;2024-01-07T20:50:35;3.60;;;2.37;;
9128;SDS011;4599;50.906;6.786;2024-01-07T20:54:37;3.67;;;2.13;;
9128;SDS011;4599;50.906;6.786;2024-01-07T20:58:39;2.80;;;2.20;;
9128;SDS011;4599;50.906;6.786;2024-01-07T21:02:42;4.17;;;2.47;;
9128;SDS011;4599;50.906;6.786;2024-01-07T21:06:43;3.90;;;2.60;;
9128;SDS011;4599;50.906;6.786;2024-01-07T21:10:45;3.63;;;2.30;;
9128;SDS011;4599;50.906;6.786;2024-01-07T21:14:46;4.23;;;2.70;;
9128;SDS011;4599;50.906;6.786;2024-01-07T21:18:49;5.70;;;2.60;;
9128;SDS011;4599;50.906;6.786;2024-01-07T21:22:51;5.20;;;2.30;;
9128;SDS011;4599;50.906;6.786;2024-01-07T21:26:53;5.77;;;2.60;;
9128;SDS011;4599;50.906;6.786;2024-01-07T21:30:54;3.30;;;2.60;;
9128;SDS011;4599;50.906;6.786;2024-01-07T21:34:58;4.00;;;2.80;;
9128;SDS011;4599;50.906;6.786;2024-01-07T21:38:59;4.07;;;2.47;;
9128;SDS011;4599;50.906;6.786;2024-01-07T21:43:01;4.67;;;2.33;;
9128;SDS011;4599;50.906;6.786;2024-01-07T21:47:03;3.60;;;2.53;;
9128;SDS011;4599;50.906;6.786;2024-01-07T21:51:06;3.17;;;2.40;;
9128;SDS011;4599;50.906;6.786;2024-01-07T21:55:08;3.30;;;2.07;;
9128;SDS011;4599;50.906;6.786;2024-01-07T21:59:09;3.27;;;2.20;;
9128;SDS011;4599;50.906;6.786;2024-01-07T22:03:11;4.00;;;2.30;;
9128;SDS011;4599;50.906;6.786;2024-01-07T22:07:14;2.37;;;2.17;;
9128;SDS011;4599;50.906;6.786;2024-01-07T22:11:16;2.60;;;2.40;;
9128;SDS011;4599;50.906;6.786;2024-01-07T22:15:17;3.73;;;3.00;;
9128;SDS011;4599;50.906;6.786;2024-01-07T22:19:20;4.60;;;2.60;;
9128;SDS011;4599;50.906;6.786;2024-01-07T22:23:23;5.37;;;2.57;;
9128;SDS011;4599;50.906;6.786;2024-01-07T22:27:25;6.37;;;2.90;;
9128;SDS011;4599;50.906;6.786;2024-01-07T22:31:26;2.83;;;2.30;;
9128;SDS011;4599;50.906;6.786;2024-01-07T22:35:28;5.77;;;2.33;;
9128;SDS011;4599;50.906;6.786;2024-01-07T22:39:31;3.50;;;2.30;;
9128;SDS011;4599;50.906;6.786;2024-01-07T22:43:33;2.73;;;2.00;;
9128;SDS011;4599;50.906;6.786;2024-01-07T22:47:34;3.20;;;1.90;;
9128;SDS011;4599;50.906;6.786;2024-01-07T22:51:39;2.53;;;1.77;;
9128;SDS011;4599;50.906;6.786;2024-01-07T22:55:42;2.07;;;1.73;;
9128;SDS011;4599;50.906;6.786;2024-01-07T22:59:44;2.63;;;1.90;;
9128;SDS011;4599;50.906;6.786;2024-01-07T23:03:45;2.57;;;1.70;;
9128;SDS011;4599;50.906;6.786;2024-01-07T23:07:47;2.83;;;1.73;;
9128;SDS011;4599;50.906;6.786;2024-01-07T23:11:50;3.40;;;1.80;;
9128;SDS011;4599;50.906;6.786;2024-01-07T23:15:51;4.00;;;2.00;;
9128;SDS011;4599;50.906;6.786;2024-01-07T23:19:53;2.10;;;1.90;;
9128;SDS011;4599;50.906;6.786;2024-01-07T23:23:54;2.67;;;2.10;;
9128;SDS011;4599;50.906;6.786;2024-01-07T23:27:57;2.50;;;2.10;;
9128;SDS011;4599;50.906;6.786;2024-01-07T23:31:59;2.43;;;1.70;;
9128;SDS011;4599;50.906;6.786;2024-01-07T23:36:05;5.20;;;2.13;;
9128;SDS011;4599;50.906;6.786;2024-01-07T23:40:07;2.30;;;2.03;;
9128;SDS011;4599;50.906;6.786;2024-01-07T23:44:11;6.00;;;2.20;;
9128;SDS011;4599;50.906;6.786;2024-01-07T23:48:13;3.43;;;2.30;;
9128;SDS011;4599;50.906;6.786;2024-01-07T23:52:14;3.53;;;2.27;;
9128;SDS011;4599;50.906;6.786;2024-01-07T23:56:16;3.13;;;2.53;;
